.
WxDataArchive / Data Records for 2008-03-30
2008-03-29 March 2008 2008-03-31

Data Records for Sunday, 30 March 2008

Time	Temp	Chill	HIndex	Humid	Dewpt	 Wind 	HiWind	WindDir	Rain 	Barom 
-----	----	-----	------	-----	-----	------	------	-------	-----	----- 
00:00	30.6	24.6	30.6	69	21.7	6	14	112	0.00	30.311 
00:05	30.6	26.5	30.6	69	21.7	4	12	90	0.00	30.312 
00:10	30.4	25.2	30.4	68	21.1	5	10	112	0.00	30.311 
00:15	30.4	26.2	30.4	68	21.1	4	9	112	0.00	30.314 
00:20	30.3	26.1	30.3	68	21.0	4	9	112	0.00	30.311 
00:25	30.3	26.1	30.3	68	21.0	4	12	90	0.00	30.314 
00:30	30.3	26.1	30.3	68	21.0	4	9	90	0.00	30.317 
00:35	30.3	26.1	30.3	68	21.0	4	6	90	0.00	30.318 
00:40	30.3	26.1	30.3	68	21.0	4	10	90	0.00	30.316 
00:45	30.4	25.2	30.4	68	21.1	5	11	90	0.00	30.313 
00:50	30.4	25.2	30.4	68	21.1	5	12	112	0.00	30.309 
00:55	30.6	26.5	30.6	69	21.7	4	11	90	0.00	30.307 
01:00	30.6	26.5	30.6	69	21.7	4	7	112	0.00	30.306 
01:05	30.6	26.5	30.6	69	21.7	4	9	112	0.00	30.304 
01:10	30.6	25.4	30.6	69	21.7	5	11	112	0.00	30.304 
01:15	30.6	25.4	30.6	70	22.0	5	11	112	0.00	30.303 
01:20	30.6	25.4	30.6	71	22.3	5	13	112	0.00	30.302 
01:25	30.7	25.5	30.7	71	22.4	5	10	112	0.00	30.299 
01:30	30.7	26.6	30.7	71	22.4	4	9	90	0.00	30.295 
01:35	30.9	26.8	30.9	72	23.0	4	7	112	0.00	30.295 
01:40	30.9	30.9	30.9	72	23.0	2	6	112	0.00	30.290 
01:45	31.0	31.0	31.0	72	23.1	3	8	90	0.00	30.290 
01:50	31.0	31.0	31.0	73	23.4	3	6	112	0.00	30.289 
01:55	31.0	31.0	31.0	73	23.4	3	6	112	0.00	30.288 
02:00	31.0	26.9	31.0	73	23.4	4	10	112	0.00	30.281 
02:05	31.0	26.9	31.0	73	23.4	4	10	112	0.00	30.275 
02:10	31.2	31.2	31.2	73	23.6	3	12	112	0.00	30.277 
02:15	31.2	31.2	31.2	74	23.9	2	6	112	0.00	30.281 
02:20	31.3	27.3	31.3	74	24.0	4	9	112	0.00	30.279 
02:25	31.5	27.5	31.5	73	23.9	4	10	112	0.00	30.280 
02:30	31.5	27.5	31.5	73	23.9	4	10	112	0.00	30.275 
02:35	31.6	27.6	31.6	73	24.0	4	12	112	0.00	30.275 
02:40	31.6	27.6	31.6	73	24.0	4	10	112	0.00	30.273 
02:45	31.8	27.8	31.8	73	24.1	4	9	90	0.00	30.276 
02:50	31.8	31.8	31.8	73	24.1	3	9	112	0.00	30.280 
02:55	31.9	28.0	31.9	72	23.9	4	7	112	0.00	30.281 
03:00	31.9	28.0	31.9	72	23.9	4	10	90	0.00	30.276 
03:05	31.9	28.0	31.9	72	23.9	4	9	112	0.00	30.273 
03:10	31.9	28.0	31.9	72	23.9	4	11	90	0.00	30.272 
03:15	32.1	28.2	32.1	72	24.1	4	10	90	0.00	30.273 
03:20	32.1	28.2	32.1	72	24.1	4	11	112	0.00	30.273 
03:25	32.1	28.2	32.1	71	23.8	4	10	112	0.00	30.272 
03:30	32.2	27.3	32.2	71	23.9	5	11	90	0.00	30.267 
03:35	32.2	28.3	32.2	72	24.2	4	11	112	0.00	30.262 
03:40	32.2	28.3	32.2	72	24.2	4	8	90	0.00	30.258 
03:45	32.2	28.3	32.2	72	24.2	4	7	112	0.00	30.258 
03:50	32.2	28.3	32.2	71	23.9	4	10	90	0.00	30.262 
03:55	32.4	32.4	32.4	71	24.1	3	9	112	0.00	30.260 
04:00	32.4	28.5	32.4	71	24.1	4	10	90	0.00	30.257 
04:05	32.4	32.4	32.4	71	24.1	3	9	90	0.00	30.259 
04:10	32.5	28.7	32.5	71	24.2	4	10	90	0.00	30.253 
04:15	32.5	32.5	32.5	71	24.2	3	10	112	0.00	30.255 
04:20	32.5	28.7	32.5	70	23.8	4	7	90	0.00	30.258 
04:25	32.7	28.9	32.7	70	24.0	4	8	112	0.00	30.255 
04:30	32.7	32.7	32.7	70	24.0	3	9	90	0.00	30.258 
04:35	32.7	28.9	32.7	70	24.0	4	8	112	0.00	30.255 
04:40	32.7	27.9	32.7	70	24.0	5	10	112	0.00	30.254 
04:45	32.8	28.0	32.8	69	23.8	5	12	90	0.00	30.256 
04:50	32.8	32.8	32.8	70	24.1	3	7	112	0.00	30.256 
04:55	32.8	32.8	32.8	70	24.1	3	9	90	0.00	30.256 
05:00	32.8	32.8	32.8	70	24.1	3	7	112	0.00	30.256 
05:05	32.8	29.0	32.8	70	24.1	4	6	90	0.00	30.254 
05:10	32.9	29.1	32.9	70	24.2	4	11	112	0.00	30.253 
05:15	32.9	32.9	32.9	70	24.2	3	10	112	0.00	30.247 
05:20	32.9	32.9	32.9	70	24.2	3	9	112	0.00	30.248 
05:25	32.9	29.1	32.9	69	23.9	4	10	112	0.00	30.253 
05:30	32.9	29.1	32.9	69	23.9	4	11	112	0.00	30.255 
05:35	32.9	32.9	32.9	69	23.9	3	7	112	0.00	30.254 
05:40	33.1	33.1	33.1	70	24.4	3	6	112	0.00	30.255 
05:45	33.1	29.3	33.1	69	24.1	4	7	112	0.00	30.254 
05:50	33.1	29.3	33.1	69	24.1	4	9	112	0.00	30.249 
05:55	33.1	29.3	33.1	69	24.1	4	9	90	0.00	30.243 
06:00	33.1	33.1	33.1	69	24.1	3	8	112	0.00	30.249 
06:05	33.2	29.5	33.2	69	24.2	4	9	90	0.00	30.256 
06:10	33.2	29.5	33.2	69	24.2	4	9	112	0.00	30.249 
06:15	33.2	29.5	33.2	69	24.2	4	11	112	0.00	30.245 
06:20	33.2	33.2	33.2	69	24.2	2	9	135	0.00	30.245 
06:25	33.2	29.5	33.2	69	24.2	4	9	112	0.00	30.244 
06:30	33.2	29.5	33.2	69	24.2	4	11	112	0.00	30.245 
06:35	33.2	29.5	33.2	69	24.2	4	9	112	0.00	30.247 
06:40	33.4	33.4	33.4	69	24.3	3	8	90	0.00	30.253 
06:45	33.4	33.4	33.4	69	24.3	3	7	90	0.00	30.253 
06:50	33.4	33.4	33.4	69	24.3	3	6	112	0.00	30.255 
06:55	33.5	33.5	33.5	69	24.4	3	5	112	0.00	30.249 
07:00	33.5	33.5	33.5	69	24.4	3	7	112	0.00	30.251 
07:05	33.5	33.5	33.5	69	24.4	3	6	90	0.00	30.254 
07:10	33.7	30.0	33.7	69	24.6	4	9	112	0.00	30.251 
07:15	33.7	30.0	33.7	69	24.6	4	9	112	0.00	30.251 
07:20	33.7	33.7	33.7	69	24.6	3	8	112	0.00	30.253 
07:25	33.7	30.0	33.7	69	24.6	4	9	112	0.00	30.247 
07:30	33.8	29.2	33.8	69	24.7	5	10	112	0.00	30.246 
07:35	34.0	30.4	34.0	69	24.9	4	9	112	0.00	30.247 
07:40	34.0	34.0	34.0	69	24.9	3	6	112	0.00	30.255 
07:45	34.1	34.1	34.1	69	25.0	3	6	112	0.00	30.248 
07:50	34.3	30.7	34.3	69	25.2	4	7	112	0.00	30.247 
07:55	34.3	34.3	34.3	69	25.2	2	6	112	0.00	30.246 
08:00	34.4	30.8	34.4	68	24.9	4	10	112	0.00	30.231 
08:05	34.6	30.1	34.6	67	24.8	5	11	112	0.00	30.232 
08:10	34.7	31.2	34.7	68	25.2	4	8	112	0.00	30.234 
08:15	34.9	31.4	34.9	68	25.4	4	10	112	0.00	30.241 
08:20	35.0	30.6	35.0	68	25.5	5	11	90	0.00	30.241 
08:25	35.3	31.0	35.3	67	25.5	5	13	90	0.00	30.231 
08:30	35.5	30.4	35.5	66	25.3	6	10	112	0.00	30.232 
08:35	35.6	30.5	35.6	65	25.0	6	10	112	0.00	30.230 
08:40	35.6	31.3	35.6	66	25.4	5	10	112	0.00	30.231 
08:45	35.8	30.8	35.8	65	25.2	6	11	112	0.00	30.231 
08:50	35.9	32.6	35.9	65	25.3	4	7	112	0.00	30.243 
08:55	36.0	36.0	36.0	65	25.4	3	9	90	0.00	30.247 
09:00	36.2	36.2	36.2	64	25.2	3	9	112	0.00	30.254 
09:05	36.3	36.3	36.3	65	25.7	3	10	112	0.00	30.255 
09:10	36.6	36.6	36.6	64	25.6	3	7	112	0.00	30.258 
09:15	36.9	33.7	36.9	64	25.9	4	8	112	0.00	30.261 
09:20	37.2	34.1	37.2	64	26.2	4	7	112	0.00	30.259 
09:25	37.5	34.4	37.5	63	26.1	4	10	112	0.00	30.251 
09:30	37.6	34.5	37.6	62	25.8	4	11	90	0.00	30.248 
09:35	37.8	34.8	37.8	63	26.4	4	9	90	0.00	30.252 
09:40	37.9	34.0	37.9	63	26.4	5	9	112	0.00	30.247 
09:45	38.0	32.7	38.0	62	26.2	7	11	112	0.00	30.236 
09:50	38.0	34.1	38.0	62	26.2	5	12	112	0.00	30.237 
09:55	38.2	34.4	38.2	62	26.3	5	10	112	0.00	30.230 
10:00	38.5	34.7	38.5	62	26.6	5	11	112	0.00	30.228 
10:05	38.5	34.7	38.5	62	26.6	5	12	112	0.00	30.224 
10:10	38.5	34.0	38.5	62	26.6	6	11	112	0.00	30.225 
10:15	38.8	35.1	38.8	62	26.9	5	11	112	0.00	30.227 
10:20	38.9	35.2	38.9	62	27.0	5	11	112	0.00	30.227 
10:25	39.2	35.5	39.2	62	27.3	5	11	112	0.00	30.225 
10:30	39.6	36.0	39.6	62	27.7	5	11	112	0.00	30.224 
10:35	39.9	37.2	39.9	62	28.0	4	9	112	0.00	30.224 
10:40	40.5	37.1	40.5	62	28.5	5	7	90	0.00	30.222 
10:45	41.2	38.7	41.2	62	29.2	4	9	112	0.00	30.220 
10:50	41.1	37.8	41.1	62	29.1	5	10	112	0.00	30.221 
10:55	40.9	38.4	40.9	63	29.3	4	11	112	0.00	30.215 
11:00	41.1	38.6	41.1	63	29.5	4	10	112	0.00	30.215 
11:05	41.3	38.8	41.3	63	29.7	4	9	112	0.00	30.217 
11:10	41.2	41.2	41.2	63	29.6	3	9	112	0.00	30.220 
11:15	41.2	41.2	41.2	63	29.6	3	9	112	0.00	30.215 
11:20	41.3	41.3	41.3	64	30.1	3	9	90	0.00	30.211 
11:25	41.3	38.8	41.3	65	30.4	4	9	112	0.00	30.213 
11:30	41.5	41.5	41.5	64	30.2	3	9	112	0.00	30.215 
11:35	41.5	41.5	41.5	64	30.2	2	9	112	0.00	30.214 
11:40	41.6	39.2	41.6	65	30.7	4	6	112	0.00	30.211 
11:45	41.6	41.6	41.6	65	30.7	3	9	112	0.00	30.209 
11:50	41.9	41.9	41.9	65	31.0	2	6	112	0.00	30.209 
11:55	42.2	42.2	42.2	66	31.7	2	5	112	0.00	30.210 
12:00	42.3	42.3	42.3	66	31.8	3	7	112	0.00	30.209 
12:05	42.5	42.5	42.5	67	32.3	2	4	90	0.00	30.211 
12:10	42.6	42.6	42.6	69	33.2	1	4	112	0.00	30.209 
12:15	42.6	42.6	42.6	70	33.5	2	5	112	0.00	30.207 
12:20	42.8	42.8	42.8	71	34.1	1	3	135	0.00	30.209 
12:25	42.8	42.8	42.8	73	34.8	1	3	135	0.00	30.206 
12:30	42.6	42.6	42.6	74	34.9	2	5	90	0.00	30.199 
12:35	42.6	42.6	42.6	77	35.9	2	4	112	0.00	30.193 
12:40	42.8	42.8	42.8	80	37.1	1	4	90	0.00	30.196 
12:45	42.8	42.8	42.8	82	37.7	1	3	112	0.00	30.197 
12:50	42.6	42.6	42.6	84	38.1	0	2	112	0.00	30.194 
12:55	42.6	42.6	42.6	85	38.4	1	3	112	0.00	30.195 
13:00	42.8	42.8	42.8	86	38.9	1	3	112	0.01	30.196 
13:05	42.8	42.8	42.8	87	39.2	1	2	135	0.01	30.194 
13:10	43.1	43.1	43.1	89	40.1	1	3	135	0.00	30.192 
13:15	43.1	43.1	43.1	89	40.1	0	1	112	0.00	30.185 
13:20	43.5	43.5	43.5	90	40.8	1	4	112	0.00	30.179 
13:25	43.8	43.8	43.8	90	41.1	2	4	112	0.00	30.177 
13:30	44.1	44.1	44.1	91	41.6	1	3	135	0.00	30.175 
13:35	44.3	44.3	44.3	91	41.8	2	7	112	0.00	30.174 
13:40	44.8	44.8	44.8	91	42.3	1	5	135	0.00	30.169 
13:45	45.4	45.4	45.4	91	42.9	2	5	112	0.00	30.164 
13:50	45.5	45.5	45.5	89	42.4	2	5	112	0.00	30.163 
13:55	45.5	45.5	45.5	89	42.4	1	4	90	0.00	30.160 
14:00	45.7	45.7	45.7	89	42.6	2	4	112	0.00	30.156 
14:05	45.8	45.8	45.8	89	42.7	3	7	112	0.00	30.148 
14:10	46.1	46.1	46.1	88	42.7	2	6	112	0.00	30.149 
14:15	46.1	46.1	46.1	88	42.7	3	7	112	0.00	30.146 
14:20	46.1	44.4	46.1	88	42.7	4	8	112	0.00	30.151 
14:25	46.1	46.1	46.1	88	42.7	3	5	112	0.00	30.147 
14:30	46.0	44.2	46.0	88	42.6	4	7	112	0.00	30.145 
14:35	46.0	44.2	46.0	88	42.6	4	10	112	0.00	30.143 
14:40	46.1	46.1	46.1	88	42.7	2	5	112	0.00	30.146 
14:45	46.2	46.2	46.2	88	42.8	1	5	135	0.00	30.147 
14:50	46.2	46.2	46.2	88	42.8	2	6	112	0.00	30.144 
14:55	46.2	46.2	46.2	88	42.8	2	7	90	0.00	30.142 
15:00	46.4	46.4	46.4	88	43.0	2	6	112	0.00	30.144 
15:05	46.4	46.4	46.4	88	43.0	2	4	112	0.00	30.146 
15:10	46.5	46.5	46.5	88	43.1	2	5	112	0.00	30.144 
15:15	46.5	46.5	46.5	88	43.1	2	7	112	0.00	30.141 
15:20	46.5	46.5	46.5	88	43.1	3	5	90	0.00	30.136 
15:25	46.7	46.7	46.7	89	43.6	2	4	112	0.00	30.133 
15:30	47.0	47.0	47.0	89	43.9	2	5	112	0.00	30.132 
15:35	47.1	47.1	47.1	89	44.0	3	9	90	0.00	30.134 
15:40	47.3	47.3	47.3	89	44.2	2	5	112	0.00	30.137 
15:45	47.4	47.4	47.4	89	44.3	1	5	112	0.00	30.140 
15:50	47.6	47.6	47.6	88	44.2	2	5	90	0.00	30.140 
15:55	47.4	47.4	47.4	88	44.0	2	5	112	0.00	30.139 
16:00	47.4	47.4	47.4	88	44.0	2	6	112	0.00	30.141 
16:05	47.4	47.4	47.4	88	44.0	2	5	112	0.00	30.138 
16:10	47.4	47.4	47.4	88	44.0	2	5	112	0.00	30.138 
16:15	47.4	47.4	47.4	88	44.0	2	6	112	0.00	30.128 
16:20	47.6	47.6	47.6	88	44.2	2	5	112	0.00	30.133 
16:25	47.7	47.7	47.7	88	44.3	2	6	112	0.00	30.138 
16:30	47.7	47.7	47.7	89	44.6	2	4	90	0.00	30.138 
16:35	47.9	47.9	47.9	89	44.8	2	7	112	0.00	30.137 
16:40	48.0	48.0	48.0	89	44.9	1	4	112	0.00	30.132 
16:45	48.2	48.2	48.2	89	45.1	1	4	112	0.00	30.129 
16:50	48.3	48.3	48.3	89	45.2	2	4	112	0.00	30.128 
16:55	48.3	48.3	48.3	88	44.9	1	4	112	0.00	30.129 
17:00	48.3	48.3	48.3	88	44.9	1	4	112	0.00	30.129 
17:05	48.5	48.5	48.5	88	45.1	2	5	112	0.00	30.129 
17:10	48.6	48.6	48.6	88	45.2	2	5	112	0.00	30.125 
17:15	48.8	48.8	48.8	88	45.4	2	7	112	0.00	30.125 
17:20	48.9	48.9	48.9	88	45.5	2	5	90	0.00	30.122 
17:25	48.9	48.9	48.9	88	45.5	2	7	112	0.00	30.123 
17:30	49.1	49.1	49.1	88	45.7	2	6	90	0.00	30.120 
17:35	49.1	49.1	49.1	88	45.7	1	3	112	0.00	30.121 
17:40	49.1	49.1	49.1	88	45.7	2	6	112	0.00	30.121 
17:45	48.9	48.9	48.9	88	45.5	2	6	112	0.00	30.121 
17:50	48.9	48.9	48.9	89	45.8	2	5	112	0.00	30.120 
17:55	48.9	48.9	48.9	89	45.8	2	5	135	0.00	30.120 
18:00	48.8	48.8	48.8	89	45.7	2	5	90	0.00	30.122 
18:05	48.8	48.8	48.8	89	45.7	1	4	135	0.00	30.121 
18:10	48.8	48.8	48.8	90	46.0	1	6	112	0.00	30.121 
18:15	48.6	48.6	48.6	90	45.8	1	5	135	0.00	30.121 
18:20	48.6	48.6	48.6	90	45.8	2	5	90	0.00	30.120 
18:25	48.6	48.6	48.6	90	45.8	2	5	112	0.00	30.121 
18:30	48.6	48.6	48.6	90	45.8	1	5	112	0.00	30.119 
18:35	48.5	48.5	48.5	91	46.0	1	5	112	0.00	30.119 
18:40	48.5	48.5	48.5	91	46.0	1	3	112	0.00	30.119 
18:45	48.5	48.5	48.5	91	46.0	1	5	112	0.01	30.119 
18:50	48.3	48.3	48.3	92	46.1	1	4	112	0.00	30.120 
18:55	48.3	48.3	48.3	92	46.1	1	5	112	0.00	30.121 
19:00	48.2	48.2	48.2	92	46.0	1	4	90	0.00	30.122 
19:05	48.2	48.2	48.2	92	46.0	1	4	112	0.01	30.122 
19:10	48.2	48.2	48.2	93	46.3	1	5	135	0.00	30.121 
19:15	48.0	48.0	48.0	93	46.1	1	4	90	0.01	30.120 
19:20	48.0	48.0	48.0	93	46.1	1	3	112	0.00	30.118 
19:25	48.0	48.0	48.0	93	46.1	1	2	135	0.01	30.117 
19:30	47.9	47.9	47.9	93	46.0	1	3	135	0.01	30.117 
19:35	47.9	47.9	47.9	94	46.3	0	1	135	0.01	30.114 
19:40	47.9	47.9	47.9	94	46.3	0	1	135	0.00	30.117 
19:45	47.7	47.7	47.7	94	46.1	0	1	135	0.00	30.114 
19:50	47.7	47.7	47.7	94	46.1	0	2	135	0.00	30.116 
19:55	47.6	47.6	47.6	94	46.0	0	3	112	0.00	30.118 
20:00	47.6	47.6	47.6	94	46.0	0	1	112	0.00	30.118 
20:05	47.6	47.6	47.6	94	46.0	0	2	112	0.00	30.117 
20:10	47.6	47.6	47.6	95	46.2	0	1	112	0.01	30.119 
20:15	47.6	47.6	47.6	95	46.2	0	2	112	0.00	30.117 
20:20	47.6	47.6	47.6	95	46.2	1	2	112	0.00	30.119 
20:25	47.6	47.6	47.6	95	46.2	0	1	112	0.00	30.119 
20:30	47.4	47.4	47.4	95	46.0	0	1	112	0.00	30.122 
20:35	47.4	47.4	47.4	95	46.0	0	1	112	0.00	30.123 
20:40	47.4	47.4	47.4	95	46.0	0	1	112	0.00	30.124 
20:45	47.4	47.4	47.4	95	46.0	0	1	112	0.00	30.124 
20:50	47.4	47.4	47.4	95	46.0	0	1	112	0.00	30.122 
20:55	47.4	47.4	47.4	95	46.0	0	2	112	0.00	30.122 
21:00	47.4	47.4	47.4	95	46.0	0	1	112	0.00	30.123 
21:05	47.4	47.4	47.4	96	46.3	0	1	112	0.00	30.119 
21:10	47.4	47.4	47.4	96	46.3	0	1	112	0.00	30.119 
21:15	47.4	47.4	47.4	96	46.3	0	1	112	0.00	30.118 
21:20	47.4	47.4	47.4	96	46.3	0	1	112	0.00	30.116 
21:25	47.4	47.4	47.4	96	46.3	0	1	112	0.00	30.117 
21:30	47.4	47.4	47.4	96	46.3	0	1	112	0.00	30.114 
21:35	47.4	47.4	47.4	96	46.3	0	1	112	0.00	30.108 
21:40	47.4	47.4	47.4	96	46.3	0	1	112	0.00	30.108 
21:45	47.6	47.6	47.6	96	46.5	0	1	112	0.00	30.107 
21:50	47.6	47.6	47.6	96	46.5	0	2	112	0.00	30.109 
21:55	47.6	47.6	47.6	96	46.5	0	1	112	0.00	30.105 
22:00	47.6	47.6	47.6	96	46.5	0	2	112	0.01	30.104 
22:05	47.6	47.6	47.6	96	46.5	0	2	112	0.00	30.101 
22:10	47.6	47.6	47.6	96	46.5	0	2	112	0.00	30.101 
22:15	47.7	47.7	47.7	96	46.6	0	2	112	0.00	30.103 
22:20	47.9	47.9	47.9	96	46.8	0	3	112	0.00	30.104 
22:25	48.0	48.0	48.0	96	46.9	0	3	135	0.00	30.105 
22:30	48.2	48.2	48.2	96	47.1	0	4	135	0.00	30.105 
22:35	48.2	48.2	48.2	96	47.1	1	3	135	0.00	30.103 
22:40	48.3	48.3	48.3	96	47.2	1	2	112	0.01	30.105 
22:45	48.5	48.5	48.5	96	47.4	1	4	135	0.00	30.100 
22:50	48.6	48.6	48.6	96	47.5	1	3	112	0.00	30.100 
22:55	48.8	48.8	48.8	96	47.7	1	3	112	0.00	30.100 
23:00	48.8	48.8	48.8	96	47.7	1	4	90	0.00	30.100 
23:05	48.9	48.9	48.9	96	47.8	1	4	112	0.00	30.100 
23:10	48.9	48.9	48.9	96	47.8	1	2	135	0.00	30.098 
23:15	48.8	48.8	48.8	96	47.7	1	3	112	0.00	30.096 
23:20	48.8	48.8	48.8	97	48.0	1	4	112	0.00	30.096 
23:25	48.9	48.9	48.9	96	47.8	1	4	112	0.00	30.095 
23:30	48.9	48.9	48.9	97	48.1	1	4	112	0.00	30.089 
23:35	48.9	48.9	48.9	96	47.8	2	6	112	0.00	30.089 
23:40	48.9	48.9	48.9	96	47.8	2	5	135	0.00	30.091 
23:45	48.9	48.9	48.9	96	47.8	2	4	112	0.00	30.090 
23:50	48.9	48.9	48.9	96	47.8	1	4	112	0.00	30.091 
23:55	48.9	48.9	48.9	96	47.8	1	3	112	0.00	30.087 

CoCoRaHS
IN-AL-39
A2 Web Hosting
Creative Commons License
GoDaddy
Look for:

loaded 2017-12-10 21:42:00 • last modified 2010-11-18 10:43:29
Privacy PolicyDisclaimer
• wx.awcolley.com is powered by PmWiki v.2002016 •
• all content (unless otherwise noted) © 2017 A W Colley